createdAt,value
2023-01-11T00:02:12.844Z,37.41
2023-01-11T00:04:39.244Z,37.38
2023-01-11T00:07:06.733Z,37.41
2023-01-11T00:09:31.891Z,37.29
2023-01-11T00:11:58.229Z,37.39
2023-01-11T00:14:24.573Z,37.42
2023-01-11T00:16:50.926Z,37.47
2023-01-11T00:19:17.273Z,37.41
2023-01-11T00:21:43.618Z,37.27
2023-01-11T00:24:09.967Z,37.30
2023-01-11T00:26:36.316Z,37.26
2023-01-11T00:29:02.661Z,37.27
2023-01-11T00:31:29.059Z,37.39
2023-01-11T00:33:55.354Z,37.24
2023-01-11T00:36:21.720Z,37.27
2023-01-11T00:38:48.072Z,37.29
2023-01-11T00:41:14.418Z,37.24
2023-01-11T00:43:40.781Z,37.26
2023-01-11T00:46:08.120Z,37.28
2023-01-11T00:48:33.514Z,37.30
2023-01-11T00:50:59.875Z,37.35
2023-01-11T00:53:26.215Z,37.37
2023-01-11T00:55:52.558Z,37.38
2023-01-11T00:58:18.892Z,37.44
2023-01-11T01:00:45.247Z,37.49
2023-01-11T01:03:11.587Z,37.50
2023-01-11T01:05:38.083Z,37.52
2023-01-11T01:08:04.435Z,37.51
2023-01-11T01:10:30.797Z,37.56
2023-01-11T01:12:57.154Z,37.57
2023-01-11T01:15:23.501Z,37.53
2023-01-11T01:17:49.842Z,37.60
2023-01-11T01:20:16.193Z,37.58
2023-01-11T01:22:42.537Z,37.60
2023-01-11T01:25:08.898Z,37.58
2023-01-11T01:27:35.248Z,37.55
2023-01-11T01:30:01.620Z,37.55
2023-01-11T01:32:27.979Z,37.58
2023-01-11T01:34:54.362Z,37.56
2023-01-11T01:37:20.698Z,37.60
2023-01-11T01:39:47.042Z,37.64
2023-01-11T01:42:13.395Z,37.59
2023-01-11T01:44:40.913Z,37.55
2023-01-11T01:47:07.249Z,37.61
2023-01-11T01:49:33.633Z,37.62
2023-01-11T01:51:59.967Z,37.71
2023-01-11T01:54:26.312Z,37.75
2023-01-11T01:56:52.695Z,37.81
2023-01-11T01:59:19.049Z,37.76
2023-01-11T02:01:45.416Z,37.74
2023-01-11T02:04:11.749Z,37.71
2023-01-11T02:06:38.130Z,37.71
2023-01-11T02:09:04.446Z,37.65
2023-01-11T02:11:30.790Z,37.65
2023-01-11T02:13:57.141Z,37.67
2023-01-11T02:16:23.515Z,37.68
2023-01-11T02:18:49.839Z,37.70
2023-01-11T02:21:16.214Z,37.71
2023-01-11T02:23:42.556Z,37.70
2023-01-11T02:26:08.930Z,37.70
2023-01-11T02:28:36.486Z,37.71
2023-01-11T02:31:01.668Z,37.76
2023-01-11T02:33:27.983Z,37.75
2023-01-11T02:35:54.324Z,37.76
2023-01-11T02:38:20.696Z,37.72
2023-01-11T02:40:47.032Z,37.80
2023-01-11T02:43:13.389Z,37.90
2023-01-11T02:45:39.730Z,37.87
2023-01-11T02:48:06.083Z,37.99
2023-01-11T02:50:32.435Z,37.97
2023-01-11T02:52:58.780Z,37.92
2023-01-11T02:55:25.124Z,37.99
2023-01-11T02:57:51.474Z,37.97
2023-01-11T03:00:17.824Z,37.97
2023-01-11T03:02:44.188Z,37.94
2023-01-11T03:05:10.524Z,37.96
2023-01-11T03:07:36.864Z,37.91
2023-01-11T03:10:03.212Z,37.89
2023-01-11T03:12:29.562Z,37.81
2023-01-11T03:14:57.850Z,37.85
2023-01-11T03:17:22.256Z,37.73
2023-01-11T03:19:48.597Z,37.65
2023-01-11T03:22:14.950Z,37.64
2023-01-11T03:24:41.300Z,37.54
2023-01-11T03:27:07.657Z,37.48
2023-01-11T03:29:33.993Z,37.43
2023-01-11T03:32:00.343Z,37.36
2023-01-11T03:34:26.692Z,37.39
2023-01-11T03:36:53.040Z,37.24
2023-01-11T03:39:19.413Z,37.22
2023-01-11T03:41:45.775Z,37.15
2023-01-11T03:44:12.109Z,37.07
2023-01-11T03:46:38.499Z,37.02
2023-01-11T03:49:04.833Z,36.93
2023-01-11T03:51:31.164Z,36.87
2023-01-11T03:53:57.532Z,36.96
2023-01-11T03:56:24.834Z,36.82
2023-01-11T03:58:50.221Z,36.67
2023-01-11T04:01:16.660Z,36.57
2023-01-11T04:03:42.919Z,36.51
2023-01-11T04:06:09.272Z,36.41
2023-01-11T04:08:35.619Z,36.40
2023-01-11T04:11:01.969Z,36.29
2023-01-11T04:13:28.354Z,36.29
2023-01-11T04:15:54.696Z,36.28
2023-01-11T04:18:21.086Z,36.18
2023-01-11T04:20:47.412Z,36.16
2023-01-11T04:23:13.743Z,36.24
2023-01-11T04:25:40.095Z,36.27
2023-01-11T04:28:06.467Z,36.16
2023-01-11T04:30:32.805Z,36.07
2023-01-11T04:32:59.203Z,36.02
2023-01-11T04:35:25.542Z,36.03
2023-01-11T04:37:51.883Z,35.95
2023-01-11T04:40:18.228Z,35.87
2023-01-11T04:42:44.565Z,35.86
2023-01-11T04:45:10.937Z,35.84
2023-01-11T04:47:37.271Z,35.76
2023-01-11T04:50:03.614Z,35.70
2023-01-11T04:52:29.972Z,35.62
2023-01-11T04:54:56.318Z,35.66
2023-01-11T04:57:22.673Z,35.57
2023-01-11T04:59:49.019Z,35.56
2023-01-11T05:02:15.387Z,35.46
2023-01-11T05:04:41.800Z,35.40
2023-01-11T05:07:08.108Z,35.36
2023-01-11T05:09:34.442Z,35.28
2023-01-11T05:12:00.875Z,35.35
2023-01-11T05:14:27.219Z,35.39
2023-01-11T05:16:53.628Z,35.22
2023-01-11T05:19:19.979Z,35.21
2023-01-11T05:21:46.369Z,35.09
2023-01-11T05:24:12.745Z,35.00
2023-01-11T05:26:39.100Z,34.99
2023-01-11T05:29:05.490Z,34.88
2023-01-11T05:31:31.893Z,34.92
2023-01-11T05:33:58.249Z,34.83
2023-01-11T05:36:24.642Z,34.60
2023-01-11T05:38:52.381Z,34.35
2023-01-11T05:41:17.379Z,34.35
2023-01-11T05:43:43.745Z,34.34
2023-01-11T05:46:10.220Z,34.19
2023-01-11T05:48:36.476Z,34.15
2023-01-11T05:51:02.857Z,34.13
2023-01-11T05:53:30.319Z,34.05
2023-01-11T05:55:56.704Z,33.97
2023-01-11T05:58:23.059Z,33.97
2023-01-11T06:00:49.459Z,33.92
2023-01-11T06:03:15.865Z,33.77
2023-01-11T06:05:42.202Z,33.66
2023-01-11T06:08:08.623Z,33.44
2023-01-11T06:10:35.014Z,33.54
2023-01-11T06:13:01.346Z,33.41
2023-01-11T06:15:27.731Z,33.51
2023-01-11T06:17:54.083Z,33.40
2023-01-11T06:20:20.809Z,33.23
2023-01-11T06:22:47.151Z,33.27
2023-01-11T06:25:13.551Z,33.33
2023-01-11T06:27:39.945Z,33.23
2023-01-11T06:30:06.332Z,33.10
2023-01-11T06:32:32.682Z,32.90
2023-01-11T06:34:59.066Z,32.90
2023-01-11T06:37:25.414Z,33.31
2023-01-11T06:39:51.788Z,33.51
2023-01-11T06:42:18.134Z,33.45
2023-01-11T06:44:44.521Z,33.41
2023-01-11T06:47:10.862Z,33.23
2023-01-11T06:49:37.256Z,33.31
2023-01-11T06:52:03.607Z,33.24
2023-01-11T06:54:29.987Z,33.20
2023-01-11T06:56:56.332Z,33.38
2023-01-11T06:59:25.438Z,33.37
2023-01-11T07:01:51.811Z,33.61
2023-01-11T07:04:18.185Z,33.91
2023-01-11T07:06:44.531Z,34.11
2023-01-11T07:09:10.942Z,34.24
2023-01-11T07:11:37.289Z,34.32
2023-01-11T07:14:03.695Z,34.36
2023-01-11T07:16:30.036Z,34.46
2023-01-11T07:18:56.432Z,34.33
2023-01-11T07:21:22.762Z,34.17
2023-01-11T07:23:49.150Z,34.00
2023-01-11T07:26:15.551Z,33.79
2023-01-11T07:28:41.945Z,33.59
2023-01-11T07:31:08.331Z,33.84
2023-01-11T07:33:34.696Z,34.03
2023-01-11T07:36:01.038Z,33.90
2023-01-11T07:38:27.423Z,34.02
2023-01-11T07:43:20.184Z,33.82
2023-01-11T07:45:47.159Z,33.91
2023-01-11T07:48:12.934Z,33.74
2023-01-11T07:50:39.271Z,33.74
2023-01-11T07:53:05.677Z,33.58
2023-01-11T07:55:32.012Z,33.58
2023-01-11T07:57:58.482Z,33.69
2023-01-11T08:00:24.905Z,33.55
2023-01-11T08:02:51.338Z,33.80
2023-01-11T08:05:17.632Z,33.95
2023-01-11T08:07:44.017Z,34.06
2023-01-11T08:10:10.360Z,34.04
2023-01-11T08:12:36.793Z,34.05
2023-01-11T08:15:03.123Z,34.34
2023-01-11T08:17:29.528Z,34.26
2023-01-11T08:19:55.866Z,34.21
2023-01-11T08:22:22.261Z,34.17
2023-01-11T08:24:48.619Z,33.97
2023-01-11T08:27:15.047Z,33.96
2023-01-11T08:29:41.367Z,33.95
2023-01-11T08:32:07.733Z,33.92
2023-01-11T08:34:34.638Z,33.83
2023-01-11T08:37:00.560Z,33.48
2023-01-11T08:39:26.940Z,33.55
2023-01-11T08:41:53.495Z,33.10
2023-01-11T08:44:33.343Z,33.34
2023-01-11T08:46:46.451Z,33.44
2023-01-11T08:49:12.749Z,33.34
2023-01-11T08:51:39.143Z,33.40
2023-01-11T08:54:05.495Z,33.43
2023-01-11T08:56:31.926Z,33.48
2023-01-11T08:58:58.253Z,33.53
2023-01-11T09:01:24.719Z,33.62
2023-01-11T09:03:51.020Z,33.53
2023-01-11T09:06:17.398Z,33.52
2023-01-11T09:08:43.761Z,33.43
2023-01-11T09:11:10.319Z,33.46
2023-01-11T09:13:36.489Z,33.52
2023-01-11T09:16:02.919Z,33.35
2023-01-11T09:18:29.232Z,33.28
2023-01-11T09:20:55.617Z,33.40
2023-01-11T09:23:21.966Z,33.18
2023-01-11T09:25:48.348Z,33.15
2023-01-11T09:28:14.721Z,33.24
2023-01-11T09:30:41.102Z,33.08
2023-01-11T09:33:07.458Z,33.02
2023-01-11T09:35:33.867Z,33.09
2023-01-11T09:38:00.214Z,33.01
2023-01-11T09:40:26.619Z,33.12
2023-01-11T09:42:52.970Z,33.16
2023-01-11T09:45:19.361Z,33.17
2023-01-11T09:47:45.693Z,33.27
2023-01-11T09:50:12.094Z,33.26
2023-01-11T09:52:38.462Z,33.26
2023-01-11T09:55:04.830Z,33.48
2023-01-11T09:57:31.175Z,33.48
2023-01-11T09:59:57.580Z,33.52
2023-01-11T10:02:23.930Z,33.48
2023-01-11T10:04:50.363Z,33.48
2023-01-11T10:07:16.713Z,33.45
2023-01-11T10:18:29.957Z,33.28
2023-01-11T10:18:33.077Z,33.26
2023-01-11T10:19:38.555Z,33.17
2023-01-11T10:21:55.034Z,33.51
2023-01-11T10:24:21.464Z,33.51
2023-01-11T10:26:47.815Z,33.34
2023-01-11T10:29:14.230Z,33.38
2023-01-11T10:31:40.619Z,32.98
2023-01-11T10:34:08.397Z,33.31
2023-01-11T10:36:33.286Z,33.43
2023-01-11T10:38:59.686Z,33.64
2023-01-11T10:41:26.264Z,33.64
2023-01-11T10:43:52.425Z,33.66
2023-01-11T10:46:18.777Z,33.62
2023-01-11T10:48:45.164Z,34.04
2023-01-11T10:51:11.546Z,34.04
2023-01-11T10:53:37.930Z,33.84
2023-01-11T10:56:04.276Z,33.71
2023-01-11T10:58:30.675Z,33.60
2023-01-11T11:00:57.147Z,33.61
2023-01-11T11:03:23.458Z,33.68
2023-01-11T11:05:49.791Z,33.81
2023-01-11T11:08:16.279Z,33.81
2023-01-11T11:10:42.621Z,33.61
2023-01-11T11:13:09.015Z,33.66
2023-01-11T11:15:35.394Z,33.45
2023-01-11T11:18:01.768Z,33.42
2023-01-11T11:20:28.127Z,33.64
2023-01-11T11:22:54.538Z,33.87
2023-01-11T11:25:20.935Z,34.12
2023-01-11T11:27:47.326Z,34.12
2023-01-11T11:30:13.720Z,33.98
2023-01-11T11:32:40.068Z,34.03
2023-01-11T11:35:06.420Z,33.98
2023-01-11T11:37:32.806Z,33.81
2023-01-11T11:40:00.467Z,33.98
2023-01-11T11:42:25.532Z,34.02
2023-01-11T11:44:51.868Z,34.01
2023-01-11T11:47:18.280Z,33.94
2023-01-11T11:49:44.646Z,33.96
2023-01-11T11:52:11.021Z,33.71
2023-01-11T11:54:37.356Z,33.95
2023-01-11T11:57:03.753Z,33.57
2023-01-11T11:59:30.129Z,33.71
2023-01-11T12:01:56.600Z,33.90
2023-01-11T12:04:22.974Z,33.65
2023-01-11T12:06:49.474Z,33.65
2023-01-11T12:09:15.628Z,33.35
2023-01-11T12:11:42.347Z,33.35
2023-01-11T12:14:08.680Z,33.40
2023-01-11T12:16:35.222Z,33.35
2023-01-11T12:19:01.531Z,33.49
2023-01-11T12:21:27.929Z,33.48
2023-01-11T12:23:54.278Z,33.48
2023-01-11T12:26:20.673Z,33.39
2023-01-11T12:28:47.041Z,33.52
2023-01-11T12:31:13.514Z,33.61
2023-01-11T12:33:39.798Z,33.63
2023-01-11T12:36:06.283Z,33.38
2023-01-11T12:38:32.668Z,33.38
2023-01-11T12:40:59.069Z,33.58
2023-01-11T12:43:25.427Z,33.41
2023-01-11T12:45:51.874Z,33.18
2023-01-11T12:48:18.159Z,33.41
2023-01-11T12:50:44.555Z,33.57
2023-01-11T12:53:10.895Z,33.55
2023-01-11T12:55:37.337Z,33.50
2023-01-11T12:58:03.692Z,33.62
2023-01-11T13:00:30.179Z,33.62
2023-01-11T13:02:56.607Z,33.56
2023-01-11T13:05:22.935Z,33.56
2023-01-11T13:07:49.275Z,33.55
2023-01-11T13:10:15.685Z,33.69
2023-01-11T13:12:42.053Z,33.56
2023-01-11T13:15:08.455Z,33.40
2023-01-11T13:17:34.843Z,33.91
2023-01-11T13:20:01.243Z,33.91
2023-01-11T13:22:27.603Z,33.53
2023-01-11T13:24:54.001Z,33.56
2023-01-11T13:27:20.345Z,32.80
2023-01-11T13:29:46.766Z,32.80
2023-01-11T13:32:13.111Z,33.11
2023-01-11T13:34:39.490Z,33.31
2023-01-11T13:37:05.819Z,33.31
2023-01-11T13:39:32.242Z,33.56
2023-01-11T13:41:58.577Z,33.56
2023-01-11T13:44:25.045Z,33.39
2023-01-11T13:46:51.409Z,34.12
2023-01-11T13:49:17.797Z,34.12
2023-01-11T13:51:44.198Z,33.45
2023-01-11T13:54:10.654Z,33.58
2023-01-11T13:56:36.975Z,33.39
2023-01-11T13:59:03.374Z,33.14
2023-01-11T14:01:29.828Z,33.13
2023-01-11T14:03:56.182Z,33.27
2023-01-11T14:06:22.463Z,33.13
2023-01-11T14:08:48.855Z,33.20
2023-01-11T14:11:15.202Z,33.13
2023-01-11T14:13:41.597Z,33.19
2023-01-11T14:16:08.301Z,33.19
2023-01-11T14:18:34.622Z,34.10
2023-01-11T14:21:00.973Z,34.10
2023-01-11T14:23:27.429Z,33.69
2023-01-11T14:25:53.784Z,33.38
2023-01-11T14:28:20.170Z,33.93
2023-01-11T14:30:46.656Z,33.93
2023-01-11T14:33:13.009Z,33.50
2023-01-11T14:35:39.351Z,33.40
2023-01-11T14:38:05.758Z,33.40
2023-01-11T14:40:32.119Z,33.32
2023-01-11T14:42:58.541Z,33.56
2023-01-11T14:45:24.885Z,33.56
2023-01-11T14:47:52.287Z,32.91
2023-01-11T14:50:18.637Z,33.23
2023-01-11T14:52:45.039Z,33.94
2023-01-11T14:55:11.382Z,33.94
2023-01-11T14:57:37.794Z,33.56
2023-01-11T15:00:04.193Z,33.67
2023-01-11T15:02:30.593Z,33.57
2023-01-11T15:04:57.061Z,33.63
2023-01-11T15:07:23.353Z,33.62
2023-01-11T15:09:49.676Z,33.59
2023-01-11T15:12:16.061Z,33.60
2023-01-11T15:14:42.423Z,33.45
2023-01-11T15:17:08.764Z,33.24
2023-01-11T15:19:35.157Z,33.24
2023-01-11T15:22:01.572Z,33.41
2023-01-11T15:24:27.960Z,33.24
2023-01-11T15:26:54.392Z,33.84
2023-01-11T15:29:20.697Z,33.84
2023-01-11T15:31:47.127Z,33.83
2023-01-11T15:34:13.467Z,33.89
2023-01-11T15:36:39.812Z,34.07
2023-01-11T15:39:06.208Z,33.85
2023-01-11T15:41:32.523Z,33.05
2023-01-11T15:43:58.935Z,33.05
2023-01-11T15:46:25.317Z,33.46
2023-01-11T15:48:51.654Z,33.43
2023-01-11T15:51:18.006Z,33.46
2023-01-11T15:53:44.383Z,33.71
2023-01-11T15:56:10.734Z,34.09
2023-01-11T15:58:37.136Z,33.47
2023-01-11T16:01:03.558Z,33.47
2023-01-11T16:03:30.016Z,33.55
2023-01-11T16:05:56.345Z,33.47
2023-01-11T16:08:22.736Z,33.57
2023-01-11T16:10:49.095Z,33.57
2023-01-11T16:13:15.490Z,33.43
2023-01-11T16:15:41.836Z,33.47
2023-01-11T16:18:08.210Z,33.34
2023-01-11T16:20:36.736Z,33.12
2023-01-11T16:23:03.111Z,33.21
2023-01-11T16:25:29.453Z,33.27
2023-01-11T16:27:55.837Z,33.55
2023-01-11T16:30:22.174Z,33.43
2023-01-11T16:32:48.580Z,33.57
2023-01-11T16:35:14.971Z,33.80
2023-01-11T16:37:41.348Z,33.80
2023-01-11T16:40:07.679Z,33.66
2023-01-11T16:42:34.067Z,33.64
2023-01-11T16:45:01.467Z,33.77
2023-01-11T16:47:27.841Z,33.77
2023-01-11T16:49:54.175Z,33.50
2023-01-11T16:52:20.556Z,33.40
2023-01-11T16:54:46.910Z,33.57
2023-01-11T16:57:15.118Z,33.57
2023-01-11T16:59:39.622Z,33.25
2023-01-11T17:02:06.061Z,33.27
2023-01-11T17:04:32.347Z,33.21
2023-01-11T17:06:58.752Z,33.21
2023-01-11T17:09:25.083Z,33.22
2023-01-11T17:11:51.482Z,33.15
2023-01-11T17:14:17.812Z,33.22
2023-01-11T17:16:44.293Z,33.47
2023-01-11T17:19:10.533Z,34.03
2023-01-11T17:21:36.924Z,34.03
2023-01-11T17:24:03.272Z,33.71
2023-01-11T17:26:29.662Z,33.61
2023-01-11T17:28:56.016Z,33.64
2023-01-11T17:31:22.445Z,33.71
2023-01-11T17:33:48.733Z,33.51
2023-01-11T17:36:15.108Z,33.53
2023-01-11T17:38:41.450Z,33.47
2023-01-11T17:41:07.868Z,33.48
2023-01-11T17:43:34.183Z,33.38
2023-01-11T17:46:00.590Z,32.93
2023-01-11T17:48:26.969Z,32.93
2023-01-11T17:50:53.365Z,33.47
2023-01-11T17:53:19.705Z,33.68
2023-01-11T17:55:46.084Z,33.92
2023-01-11T17:58:12.431Z,33.98
2023-01-11T18:00:38.826Z,33.82
2023-01-11T18:03:05.147Z,33.77
2023-01-11T18:05:31.537Z,33.69
2023-01-11T18:07:57.899Z,33.54
2023-01-11T18:10:24.284Z,33.50
2023-01-11T18:12:50.624Z,33.49
2023-01-11T18:15:17.031Z,33.91
2023-01-11T18:17:43.375Z,33.91
2023-01-11T18:20:09.758Z,33.52
2023-01-11T18:22:36.128Z,33.80
2023-01-11T18:25:02.501Z,33.74
2023-01-11T18:27:28.847Z,33.74
2023-01-11T18:29:55.229Z,33.94
2023-01-11T18:32:21.558Z,33.87
2023-01-11T18:34:47.948Z,33.36
2023-01-11T18:37:14.309Z,33.36
2023-01-11T18:39:40.704Z,33.50
2023-01-11T18:42:07.055Z,33.77
2023-01-11T18:44:33.433Z,33.87
2023-01-11T18:46:59.779Z,33.72
2023-01-11T18:49:26.185Z,33.82
2023-01-11T18:51:52.538Z,33.91
2023-01-11T18:54:18.925Z,34.06
2023-01-11T18:56:45.266Z,34.10
2023-01-11T18:59:11.658Z,34.02
2023-01-11T19:01:52.723Z,33.97
2023-01-11T19:04:04.388Z,33.94
2023-01-11T19:06:30.737Z,34.04
2023-01-11T19:08:57.120Z,34.12
2023-01-11T19:11:23.497Z,34.30
2023-01-11T19:13:49.891Z,34.41
2023-01-11T19:16:16.226Z,34.55
2023-01-11T19:18:42.628Z,34.67
2023-01-11T19:21:08.965Z,34.67
2023-01-11T19:23:35.397Z,34.79
2023-01-11T19:26:01.803Z,34.81
2023-01-11T19:28:28.194Z,34.95
2023-01-11T19:30:54.576Z,35.04
2023-01-11T19:33:20.917Z,35.08
2023-01-11T19:35:47.266Z,35.13
2023-01-11T19:38:13.666Z,35.22
2023-01-11T19:40:40.012Z,35.30
2023-01-11T19:43:06.397Z,35.35
2023-01-11T19:45:32.749Z,35.37
2023-01-11T19:47:59.134Z,35.52
2023-01-11T19:50:25.487Z,35.42
2023-01-11T19:52:51.865Z,35.53
2023-01-11T19:55:18.214Z,35.55
2023-01-11T19:57:44.620Z,35.56
2023-01-11T20:00:13.463Z,35.62
2023-01-11T20:02:37.360Z,35.64
2023-01-11T20:05:05.552Z,35.80
2023-01-11T20:07:31.940Z,35.81
2023-01-11T20:09:58.280Z,35.82
2023-01-11T20:12:24.672Z,35.84
2023-01-11T20:14:51.046Z,35.73
2023-01-11T20:17:17.462Z,35.75
2023-01-11T20:19:43.810Z,35.89
2023-01-11T20:22:10.198Z,36.00
2023-01-11T20:24:36.566Z,35.92
2023-01-11T20:27:03.034Z,35.89
2023-01-11T20:29:29.295Z,35.96
2023-01-11T20:31:55.812Z,35.95
2023-01-11T20:34:22.073Z,36.01
2023-01-11T20:36:48.522Z,35.96
2023-01-11T20:39:14.886Z,36.00
2023-01-11T20:41:41.369Z,36.04
2023-01-11T20:44:07.698Z,35.98
2023-01-11T20:46:34.142Z,35.97
2023-01-11T20:49:00.470Z,36.00
2023-01-11T20:51:26.827Z,36.07
2023-01-11T20:53:53.169Z,36.11
2023-01-11T20:56:19.550Z,36.12
2023-01-11T20:58:45.891Z,36.05
2023-01-11T21:01:12.312Z,36.06
2023-01-11T21:03:38.630Z,36.18
2023-01-11T21:06:05.013Z,36.20
2023-01-11T21:08:31.360Z,36.05
2023-01-11T21:10:57.742Z,36.13
2023-01-11T21:13:24.091Z,36.13
2023-01-11T21:15:50.518Z,36.14
2023-01-11T21:18:16.834Z,36.22
2023-01-11T21:20:43.222Z,36.16
2023-01-11T21:23:09.563Z,36.23
2023-01-11T21:25:36.031Z,36.29
2023-01-11T21:28:02.408Z,36.26
2023-01-11T21:30:28.808Z,36.29
2023-01-11T21:32:55.151Z,36.20
2023-01-11T21:35:21.544Z,36.31
2023-01-11T21:37:47.878Z,36.24
2023-01-11T21:40:15.494Z,36.25
2023-01-11T21:42:40.607Z,36.33
2023-01-11T21:45:06.989Z,36.33
2023-01-11T21:47:33.327Z,36.42
2023-01-11T21:49:59.743Z,36.41
2023-01-11T21:52:26.069Z,36.44
2023-01-11T21:54:52.461Z,36.43
2023-01-11T21:57:18.798Z,36.44
2023-01-11T21:59:45.179Z,36.49
2023-01-11T22:02:11.569Z,36.50
2023-01-11T22:04:37.943Z,36.52
2023-01-11T22:07:04.280Z,36.55
2023-01-11T22:09:30.694Z,36.56
2023-01-11T22:11:57.014Z,36.52
2023-01-11T22:14:23.413Z,36.53
2023-01-11T22:16:49.749Z,36.53
2023-01-11T22:19:16.142Z,36.62
2023-01-11T22:21:42.488Z,36.69
2023-01-11T22:24:10.359Z,36.64
2023-01-11T22:26:35.246Z,36.78
2023-01-11T22:29:01.645Z,36.64
2023-01-11T22:31:29.094Z,36.95
2023-01-11T22:33:54.370Z,36.67
2023-01-11T22:36:20.741Z,36.71
2023-01-11T22:38:49.619Z,36.67
2023-01-11T22:41:15.968Z,36.70
2023-01-11T22:43:42.372Z,36.79
2023-01-11T22:46:08.793Z,36.81
2023-01-11T22:48:35.167Z,36.74
2023-01-11T22:51:01.513Z,36.81
2023-01-11T22:53:27.902Z,36.87
2023-01-11T22:55:54.240Z,36.91
2023-01-11T22:58:20.634Z,36.96
2023-01-11T23:00:46.986Z,36.85
2023-01-11T23:03:13.432Z,36.87
2023-01-11T23:05:39.705Z,36.90
2023-01-11T23:08:06.096Z,36.96
2023-01-11T23:10:32.435Z,36.89
2023-01-11T23:12:58.834Z,36.96
2023-01-11T23:15:25.182Z,36.96
2023-01-11T23:17:51.562Z,36.95
2023-01-11T23:20:17.910Z,37.01
2023-01-11T23:22:44.303Z,36.94
2023-01-11T23:25:10.650Z,36.88
2023-01-11T23:27:37.049Z,36.84
2023-01-11T23:30:04.713Z,37.25
2023-01-11T23:32:29.773Z,37.25
2023-01-11T23:34:56.123Z,37.30
2023-01-11T23:37:22.509Z,37.23
2023-01-11T23:39:48.857Z,37.20
2023-01-11T23:42:15.282Z,37.25
2023-01-11T23:44:41.626Z,37.22
2023-01-11T23:47:08.126Z,37.19
2023-01-11T23:49:34.487Z,37.02
2023-01-11T23:52:00.879Z,36.94
2023-01-11T23:54:28.320Z,36.99
2023-01-11T23:56:54.689Z,36.97
2023-01-11T23:59:21.045Z,37.02
